sensor_id;sensor_type;location;lat;lon;timestamp;temperature;humidity
60293;DHT22;52402;52.670;6.750;2023-04-15T00:01:22;5.60;99.90
60293;DHT22;52402;52.670;6.750;2023-04-15T00:03:50;5.60;99.90
60293;DHT22;52402;52.670;6.750;2023-04-15T00:06:20;5.50;99.90
60293;DHT22;52402;52.670;6.750;2023-04-15T00:08:46;5.50;99.90
60293;DHT22;52402;52.670;6.750;2023-04-15T00:11:12;5.50;99.90
60293;DHT22;52402;52.670;6.750;2023-04-15T00:13:38;5.40;99.90
60293;DHT22;52402;52.670;6.750;2023-04-15T00:16:05;5.40;99.90
60293;DHT22;52402;52.670;6.750;2023-04-15T00:18:32;5.30;99.90
60293;DHT22;52402;52.670;6.750;2023-04-15T00:20:58;5.40;99.90
60293;DHT22;52402;52.670;6.750;2023-04-15T00:23:24;5.30;99.90
60293;DHT22;52402;52.670;6.750;2023-04-15T00:25:51;5.30;99.90
60293;DHT22;52402;52.670;6.750;2023-04-15T00:28:17;5.30;99.90
60293;DHT22;52402;52.670;6.750;2023-04-15T00:30:43;5.30;99.90
60293;DHT22;52402;52.670;6.750;2023-04-15T00:33:08;5.30;99.90
60293;DHT22;52402;52.670;6.750;2023-04-15T00:35:34;5.30;99.90
60293;DHT22;52402;52.670;6.750;2023-04-15T00:38:02;5.20;99.90
60293;DHT22;52402;52.670;6.750;2023-04-15T00:40:29;5.20;99.90
60293;DHT22;52402;52.670;6.750;2023-04-15T00:42:54;5.20;99.90
60293;DHT22;52402;52.670;6.750;2023-04-15T00:45:20;5.20;99.90
60293;DHT22;52402;52.670;6.750;2023-04-15T00:47:46;5.10;99.90
60293;DHT22;52402;52.670;6.750;2023-04-15T00:50:11;5.10;99.90
60293;DHT22;52402;52.670;6.750;2023-04-15T00:52:38;5.10;99.90
60293;DHT22;52402;52.670;6.750;2023-04-15T00:55:05;5.10;99.90
60293;DHT22;52402;52.670;6.750;2023-04-15T00:57:31;5.10;99.90
60293;DHT22;52402;52.670;6.750;2023-04-15T00:59:57;5.00;99.90
60293;DHT22;52402;52.670;6.750;2023-04-15T01:02:23;5.00;99.90
60293;DHT22;52402;52.670;6.750;2023-04-15T01:04:49;5.00;99.90
60293;DHT22;52402;52.670;6.750;2023-04-15T01:07:15;4.90;99.90
60293;DHT22;52402;52.670;6.750;2023-04-15T01:09:41;4.90;99.90
60293;DHT22;52402;52.670;6.750;2023-04-15T01:12:07;4.90;99.90
60293;DHT22;52402;52.670;6.750;2023-04-15T01:14:34;4.90;99.90
60293;DHT22;52402;52.670;6.750;2023-04-15T01:17:00;4.90;99.90
60293;DHT22;52402;52.670;6.750;2023-04-15T01:19:26;4.80;99.90
60293;DHT22;52402;52.670;6.750;2023-04-15T01:21:53;4.80;99.90
60293;DHT22;52402;52.670;6.750;2023-04-15T01:24:19;4.80;99.90
60293;DHT22;52402;52.670;6.750;2023-04-15T01:26:45;4.80;99.90
60293;DHT22;52402;52.670;6.750;2023-04-15T01:29:11;4.80;99.90
60293;DHT22;52402;52.670;6.750;2023-04-15T01:31:37;4.80;99.90
60293;DHT22;52402;52.670;6.750;2023-04-15T01:34:03;4.80;99.90
60293;DHT22;52402;52.670;6.750;2023-04-15T01:36:30;4.70;99.90
60293;DHT22;52402;52.670;6.750;2023-04-15T01:38:56;4.70;99.90
60293;DHT22;52402;52.670;6.750;2023-04-15T01:41:26;4.70;99.90
60293;DHT22;52402;52.670;6.750;2023-04-15T01:43:53;4.60;99.90
60293;DHT22;52402;52.670;6.750;2023-04-15T01:46:19;4.60;99.90
60293;DHT22;52402;52.670;6.750;2023-04-15T01:48:45;4.60;99.90
60293;DHT22;52402;52.670;6.750;2023-04-15T01:51:10;4.60;99.90
60293;DHT22;52402;52.670;6.750;2023-04-15T01:53:36;4.60;99.90
60293;DHT22;52402;52.670;6.750;2023-04-15T01:56:02;4.50;99.90
60293;DHT22;52402;52.670;6.750;2023-04-15T01:58:27;4.50;99.90
60293;DHT22;52402;52.670;6.750;2023-04-15T02:00:53;4.50;99.90
60293;DHT22;52402;52.670;6.750;2023-04-15T02:03:19;4.40;99.90
60293;DHT22;52402;52.670;6.750;2023-04-15T02:05:44;4.30;99.90
60293;DHT22;52402;52.670;6.750;2023-04-15T02:08:10;4.30;99.90
60293;DHT22;52402;52.670;6.750;2023-04-15T02:10:36;4.30;99.90
60293;DHT22;52402;52.670;6.750;2023-04-15T02:13:02;4.20;99.90
60293;DHT22;52402;52.670;6.750;2023-04-15T02:15:27;4.20;99.90
60293;DHT22;52402;52.670;6.750;2023-04-15T02:17:53;4.20;99.90
60293;DHT22;52402;52.670;6.750;2023-04-15T02:20:19;4.20;99.90
60293;DHT22;52402;52.670;6.750;2023-04-15T02:22:46;4.20;99.90
60293;DHT22;52402;52.670;6.750;2023-04-15T02:25:13;4.20;99.90
60293;DHT22;52402;52.670;6.750;2023-04-15T02:27:38;4.20;99.90
60293;DHT22;52402;52.670;6.750;2023-04-15T02:30:04;4.20;99.90
60293;DHT22;52402;52.670;6.750;2023-04-15T02:32:32;4.20;99.90
60293;DHT22;52402;52.670;6.750;2023-04-15T02:35:04;4.20;99.90
60293;DHT22;52402;52.670;6.750;2023-04-15T02:37:32;4.20;99.90
60293;DHT22;52402;52.670;6.750;2023-04-15T02:40:01;4.20;99.90
60293;DHT22;52402;52.670;6.750;2023-04-15T02:42:27;4.20;99.90
60293;DHT22;52402;52.670;6.750;2023-04-15T02:44:54;4.10;99.90
60293;DHT22;52402;52.670;6.750;2023-04-15T02:47:20;4.10;99.90
60293;DHT22;52402;52.670;6.750;2023-04-15T02:49:46;4.10;99.90
60293;DHT22;52402;52.670;6.750;2023-04-15T02:52:11;4.10;99.90
60293;DHT22;52402;52.670;6.750;2023-04-15T02:54:38;4.10;99.90
60293;DHT22;52402;52.670;6.750;2023-04-15T02:57:03;4.10;99.90
60293;DHT22;52402;52.670;6.750;2023-04-15T02:59:31;4.10;99.90
60293;DHT22;52402;52.670;6.750;2023-04-15T03:01:56;4.10;99.90
60293;DHT22;52402;52.670;6.750;2023-04-15T03:04:25;4.10;99.90
60293;DHT22;52402;52.670;6.750;2023-04-15T03:06:51;4.10;99.90
60293;DHT22;52402;52.670;6.750;2023-04-15T03:09:16;4.10;99.90
60293;DHT22;52402;52.670;6.750;2023-04-15T03:11:42;4.10;99.90
60293;DHT22;52402;52.670;6.750;2023-04-15T03:14:08;4.10;99.90
60293;DHT22;52402;52.670;6.750;2023-04-15T03:16:33;4.00;99.90
60293;DHT22;52402;52.670;6.750;2023-04-15T03:18:59;3.90;99.90
60293;DHT22;52402;52.670;6.750;2023-04-15T03:21:24;3.90;99.90
60293;DHT22;52402;52.670;6.750;2023-04-15T03:23:51;3.90;99.90
60293;DHT22;52402;52.670;6.750;2023-04-15T03:26:30;3.90;99.90
60293;DHT22;52402;52.670;6.750;2023-04-15T03:28:56;3.80;99.90
60293;DHT22;52402;52.670;6.750;2023-04-15T03:31:22;3.80;99.90
60293;DHT22;52402;52.670;6.750;2023-04-15T03:33:48;3.70;99.90
60293;DHT22;52402;52.670;6.750;2023-04-15T03:36:13;3.70;99.90
60293;DHT22;52402;52.670;6.750;2023-04-15T03:38:40;3.60;99.90
60293;DHT22;52402;52.670;6.750;2023-04-15T03:41:05;3.60;99.90
60293;DHT22;52402;52.670;6.750;2023-04-15T03:43:32;3.60;99.90
60293;DHT22;52402;52.670;6.750;2023-04-15T03:45:57;3.50;99.90
60293;DHT22;52402;52.670;6.750;2023-04-15T03:48:23;3.50;99.90
60293;DHT22;52402;52.670;6.750;2023-04-15T03:50:48;3.50;99.90
60293;DHT22;52402;52.670;6.750;2023-04-15T03:53:14;3.50;99.90
60293;DHT22;52402;52.670;6.750;2023-04-15T03:55:40;3.50;99.90
60293;DHT22;52402;52.670;6.750;2023-04-15T03:58:06;3.50;99.90
60293;DHT22;52402;52.670;6.750;2023-04-15T04:00:31;3.50;99.90
60293;DHT22;52402;52.670;6.750;2023-04-15T04:02:57;3.60;99.90
60293;DHT22;52402;52.670;6.750;2023-04-15T04:05:22;3.60;99.90
60293;DHT22;52402;52.670;6.750;2023-04-15T04:07:48;3.60;99.90
60293;DHT22;52402;52.670;6.750;2023-04-15T04:10:14;3.60;99.90
60293;DHT22;52402;52.670;6.750;2023-04-15T04:12:39;3.60;99.90
60293;DHT22;52402;52.670;6.750;2023-04-15T04:15:06;3.60;99.90
60293;DHT22;52402;52.670;6.750;2023-04-15T04:17:32;3.60;99.90
60293;DHT22;52402;52.670;6.750;2023-04-15T04:19:58;3.50;99.90
60293;DHT22;52402;52.670;6.750;2023-04-15T04:22:23;3.50;99.90
60293;DHT22;52402;52.670;6.750;2023-04-15T04:24:49;3.40;99.90
60293;DHT22;52402;52.670;6.750;2023-04-15T04:27:15;3.50;99.90
60293;DHT22;52402;52.670;6.750;2023-04-15T04:29:41;3.50;99.90
60293;DHT22;52402;52.670;6.750;2023-04-15T04:32:06;3.50;99.90
60293;DHT22;52402;52.670;6.750;2023-04-15T04:34:32;3.60;99.90
60293;DHT22;52402;52.670;6.750;2023-04-15T04:36:57;3.60;99.90
60293;DHT22;52402;52.670;6.750;2023-04-15T04:39:23;3.60;99.90
60293;DHT22;52402;52.670;6.750;2023-04-15T04:41:49;3.50;99.90
60293;DHT22;52402;52.670;6.750;2023-04-15T04:44:16;3.50;99.90
60293;DHT22;52402;52.670;6.750;2023-04-15T04:46:42;3.50;99.90
60293;DHT22;52402;52.670;6.750;2023-04-15T04:49:08;3.50;99.90
60293;DHT22;52402;52.670;6.750;2023-04-15T04:51:33;3.40;99.90
60293;DHT22;52402;52.670;6.750;2023-04-15T04:53:59;3.50;99.90
60293;DHT22;52402;52.670;6.750;2023-04-15T04:56:24;3.40;99.90
60293;DHT22;52402;52.670;6.750;2023-04-15T04:58:50;3.40;99.90
60293;DHT22;52402;52.670;6.750;2023-04-15T05:01:16;3.40;99.90
60293;DHT22;52402;52.670;6.750;2023-04-15T05:03:42;3.40;99.90
60293;DHT22;52402;52.670;6.750;2023-04-15T05:06:07;3.40;99.90
60293;DHT22;52402;52.670;6.750;2023-04-15T05:08:33;3.40;99.90
60293;DHT22;52402;52.670;6.750;2023-04-15T05:10:59;3.40;99.90
60293;DHT22;52402;52.670;6.750;2023-04-15T05:13:25;3.40;99.90
60293;DHT22;52402;52.670;6.750;2023-04-15T05:15:50;3.40;99.90
60293;DHT22;52402;52.670;6.750;2023-04-15T05:18:16;3.50;99.90
60293;DHT22;52402;52.670;6.750;2023-04-15T05:20:42;3.50;99.90
60293;DHT22;52402;52.670;6.750;2023-04-15T05:23:07;3.50;99.90
60293;DHT22;52402;52.670;6.750;2023-04-15T05:25:33;3.50;99.90
60293;DHT22;52402;52.670;6.750;2023-04-15T05:27:59;3.60;99.90
60293;DHT22;52402;52.670;6.750;2023-04-15T05:30:24;3.60;99.90
60293;DHT22;52402;52.670;6.750;2023-04-15T05:32:51;3.60;99.90
60293;DHT22;52402;52.670;6.750;2023-04-15T05:35:16;3.60;99.90
60293;DHT22;52402;52.670;6.750;2023-04-15T05:37:42;3.60;99.90
60293;DHT22;52402;52.670;6.750;2023-04-15T05:40:08;3.70;99.90
60293;DHT22;52402;52.670;6.750;2023-04-15T05:42:35;3.80;99.90
60293;DHT22;52402;52.670;6.750;2023-04-15T05:45:00;3.80;99.90
60293;DHT22;52402;52.670;6.750;2023-04-15T05:47:32;3.80;99.90
60293;DHT22;52402;52.670;6.750;2023-04-15T05:49:58;3.90;99.90
60293;DHT22;52402;52.670;6.750;2023-04-15T05:52:23;3.90;99.90
60293;DHT22;52402;52.670;6.750;2023-04-15T05:54:49;3.90;99.90
60293;DHT22;52402;52.670;6.750;2023-04-15T05:57:15;3.90;99.90
60293;DHT22;52402;52.670;6.750;2023-04-15T05:59:41;4.00;99.90
60293;DHT22;52402;52.670;6.750;2023-04-15T06:02:08;4.20;99.90
60293;DHT22;52402;52.670;6.750;2023-04-15T06:04:34;4.30;99.90
60293;DHT22;52402;52.670;6.750;2023-04-15T06:06:59;4.40;99.90
60293;DHT22;52402;52.670;6.750;2023-04-15T06:09:25;4.50;99.90
60293;DHT22;52402;52.670;6.750;2023-04-15T06:11:51;4.70;99.90
60293;DHT22;52402;52.670;6.750;2023-04-15T06:14:17;4.80;99.90
60293;DHT22;52402;52.670;6.750;2023-04-15T06:16:43;4.90;99.90
60293;DHT22;52402;52.670;6.750;2023-04-15T06:19:08;5.00;99.90
60293;DHT22;52402;52.670;6.750;2023-04-15T06:21:34;5.10;99.90
60293;DHT22;52402;52.670;6.750;2023-04-15T06:24:00;5.20;99.90
60293;DHT22;52402;52.670;6.750;2023-04-15T06:26:26;5.40;99.90
60293;DHT22;52402;52.670;6.750;2023-04-15T06:28:54;5.50;99.90
60293;DHT22;52402;52.670;6.750;2023-04-15T06:31:21;5.60;99.90
60293;DHT22;52402;52.670;6.750;2023-04-15T06:33:46;5.70;99.90
60293;DHT22;52402;52.670;6.750;2023-04-15T06:36:12;5.80;99.90
60293;DHT22;52402;52.670;6.750;2023-04-15T06:38:38;5.90;99.90
60293;DHT22;52402;52.670;6.750;2023-04-15T06:41:07;6.00;99.90
60293;DHT22;52402;52.670;6.750;2023-04-15T06:43:32;6.10;99.90
60293;DHT22;52402;52.670;6.750;2023-04-15T06:45:58;6.20;99.90
60293;DHT22;52402;52.670;6.750;2023-04-15T06:48:24;6.30;99.90
60293;DHT22;52402;52.670;6.750;2023-04-15T06:50:49;6.30;99.90
60293;DHT22;52402;52.670;6.750;2023-04-15T06:53:15;6.40;99.90
60293;DHT22;52402;52.670;6.750;2023-04-15T06:55:41;6.50;99.90
60293;DHT22;52402;52.670;6.750;2023-04-15T06:58:07;6.50;99.90
60293;DHT22;52402;52.670;6.750;2023-04-15T07:00:32;6.60;99.90
60293;DHT22;52402;52.670;6.750;2023-04-15T07:02:59;6.70;99.90
60293;DHT22;52402;52.670;6.750;2023-04-15T07:05:28;6.80;99.90
60293;DHT22;52402;52.670;6.750;2023-04-15T07:07:54;6.90;99.90
60293;DHT22;52402;52.670;6.750;2023-04-15T07:10:20;6.90;99.90
60293;DHT22;52402;52.670;6.750;2023-04-15T07:12:46;7.00;99.90
60293;DHT22;52402;52.670;6.750;2023-04-15T07:15:12;7.10;99.90
60293;DHT22;52402;52.670;6.750;2023-04-15T07:17:37;7.10;99.90
60293;DHT22;52402;52.670;6.750;2023-04-15T07:20:03;7.10;99.90
60293;DHT22;52402;52.670;6.750;2023-04-15T07:22:29;7.20;99.90
60293;DHT22;52402;52.670;6.750;2023-04-15T07:24:55;7.30;99.90
60293;DHT22;52402;52.670;6.750;2023-04-15T07:27:21;7.30;99.90
60293;DHT22;52402;52.670;6.750;2023-04-15T07:29:47;7.40;99.90
60293;DHT22;52402;52.670;6.750;2023-04-15T07:32:12;7.40;99.90
60293;DHT22;52402;52.670;6.750;2023-04-15T07:34:38;7.50;99.90
60293;DHT22;52402;52.670;6.750;2023-04-15T07:37:04;7.60;99.90
60293;DHT22;52402;52.670;6.750;2023-04-15T07:39:32;7.60;99.90
60293;DHT22;52402;52.670;6.750;2023-04-15T07:41:58;7.70;99.90
60293;DHT22;52402;52.670;6.750;2023-04-15T07:44:25;7.80;99.90
60293;DHT22;52402;52.670;6.750;2023-04-15T07:46:51;7.90;99.90
60293;DHT22;52402;52.670;6.750;2023-04-15T07:49:16;7.90;99.90
60293;DHT22;52402;52.670;6.750;2023-04-15T07:51:43;7.90;99.90
60293;DHT22;52402;52.670;6.750;2023-04-15T07:54:10;8.10;99.90
60293;DHT22;52402;52.670;6.750;2023-04-15T07:56:35;8.10;99.90
60293;DHT22;52402;52.670;6.750;2023-04-15T07:59:01;8.20;99.90
60293;DHT22;52402;52.670;6.750;2023-04-15T08:01:29;8.30;99.90
60293;DHT22;52402;52.670;6.750;2023-04-15T08:03:55;8.40;99.90
60293;DHT22;52402;52.670;6.750;2023-04-15T08:06:22;8.50;99.90
60293;DHT22;52402;52.670;6.750;2023-04-15T08:08:47;8.60;99.90
60293;DHT22;52402;52.670;6.750;2023-04-15T08:11:13;8.70;99.90
60293;DHT22;52402;52.670;6.750;2023-04-15T08:13:39;8.80;99.90
60293;DHT22;52402;52.670;6.750;2023-04-15T08:16:17;8.90;99.90
60293;DHT22;52402;52.670;6.750;2023-04-15T08:18:44;9.00;99.90
60293;DHT22;52402;52.670;6.750;2023-04-15T08:21:10;9.00;99.90
60293;DHT22;52402;52.670;6.750;2023-04-15T08:23:36;9.20;99.90
60293;DHT22;52402;52.670;6.750;2023-04-15T08:26:02;9.20;99.90
60293;DHT22;52402;52.670;6.750;2023-04-15T08:28:27;9.30;99.90
60293;DHT22;52402;52.670;6.750;2023-04-15T08:30:53;9.30;99.90
60293;DHT22;52402;52.670;6.750;2023-04-15T08:33:19;9.30;99.90
60293;DHT22;52402;52.670;6.750;2023-04-15T08:35:45;9.30;99.90
60293;DHT22;52402;52.670;6.750;2023-04-15T08:38:11;9.30;99.90
60293;DHT22;52402;52.670;6.750;2023-04-15T08:40:42;9.40;99.90
60293;DHT22;52402;52.670;6.750;2023-04-15T08:43:34;9.30;99.90
60293;DHT22;52402;52.670;6.750;2023-04-15T08:46:03;9.40;99.90
60293;DHT22;52402;52.670;6.750;2023-04-15T08:48:32;9.30;99.90
60293;DHT22;52402;52.670;6.750;2023-04-15T08:50:57;9.40;99.90
60293;DHT22;52402;52.670;6.750;2023-04-15T08:53:24;9.40;99.90
60293;DHT22;52402;52.670;6.750;2023-04-15T08:55:51;9.50;99.90
60293;DHT22;52402;52.670;6.750;2023-04-15T08:58:19;9.60;99.90
60293;DHT22;52402;52.670;6.750;2023-04-15T09:00:44;9.70;99.90
60293;DHT22;52402;52.670;6.750;2023-04-15T09:03:11;9.80;99.90
60293;DHT22;52402;52.670;6.750;2023-04-15T09:05:37;9.70;99.90
60293;DHT22;52402;52.670;6.750;2023-04-15T09:08:03;9.70;99.90
60293;DHT22;52402;52.670;6.750;2023-04-15T09:10:30;9.70;99.90
60293;DHT22;52402;52.670;6.750;2023-04-15T09:12:56;9.70;99.90
60293;DHT22;52402;52.670;6.750;2023-04-15T09:15:25;9.60;99.90
60293;DHT22;52402;52.670;6.750;2023-04-15T09:17:54;9.50;99.90
60293;DHT22;52402;52.670;6.750;2023-04-15T09:20:21;9.50;99.90
60293;DHT22;52402;52.670;6.750;2023-04-15T09:22:48;9.50;99.90
60293;DHT22;52402;52.670;6.750;2023-04-15T09:27:51;9.50;99.90
60293;DHT22;52402;52.670;6.750;2023-04-15T09:30:17;9.60;99.90
60293;DHT22;52402;52.670;6.750;2023-04-15T09:32:53;9.60;99.90
60293;DHT22;52402;52.670;6.750;2023-04-15T09:35:20;9.60;99.90
60293;DHT22;52402;52.670;6.750;2023-04-15T09:37:50;9.60;99.90
60293;DHT22;52402;52.670;6.750;2023-04-15T09:40:35;9.50;99.90
60293;DHT22;52402;52.670;6.750;2023-04-15T09:43:02;9.50;99.90
60293;DHT22;52402;52.670;6.750;2023-04-15T09:45:30;9.40;99.90
60293;DHT22;52402;52.670;6.750;2023-04-15T09:48:14;9.30;99.90
60293;DHT22;52402;52.670;6.750;2023-04-15T09:50:41;9.30;99.90
60293;DHT22;52402;52.670;6.750;2023-04-15T09:53:14;9.30;99.90
60293;DHT22;52402;52.670;6.750;2023-04-15T09:55:44;9.40;99.90
60293;DHT22;52402;52.670;6.750;2023-04-15T09:58:17;9.40;99.90
60293;DHT22;52402;52.670;6.750;2023-04-15T10:00:49;9.40;99.90
60293;DHT22;52402;52.670;6.750;2023-04-15T10:03:25;9.40;99.90
60293;DHT22;52402;52.670;6.750;2023-04-15T10:05:53;9.50;99.90
60293;DHT22;52402;52.670;6.750;2023-04-15T10:08:21;9.50;99.90
60293;DHT22;52402;52.670;6.750;2023-04-15T10:10:48;9.50;99.90
60293;DHT22;52402;52.670;6.750;2023-04-15T10:13:23;9.50;99.90
60293;DHT22;52402;52.670;6.750;2023-04-15T10:16:21;9.60;99.90
60293;DHT22;52402;52.670;6.750;2023-04-15T10:18:53;9.60;99.90
60293;DHT22;52402;52.670;6.750;2023-04-15T10:21:20;9.70;99.90
60293;DHT22;52402;52.670;6.750;2023-04-15T10:23:47;9.80;99.90
60293;DHT22;52402;52.670;6.750;2023-04-15T10:26:13;9.90;99.90
60293;DHT22;52402;52.670;6.750;2023-04-15T10:28:43;9.80;99.90
60293;DHT22;52402;52.670;6.750;2023-04-15T10:31:11;9.80;99.90
60293;DHT22;52402;52.670;6.750;2023-04-15T10:33:39;9.80;99.90
60293;DHT22;52402;52.670;6.750;2023-04-15T10:36:06;9.80;99.90
60293;DHT22;52402;52.670;6.750;2023-04-15T10:41:20;10.00;99.90
60293;DHT22;52402;52.670;6.750;2023-04-15T10:43:59;10.10;99.90
60293;DHT22;52402;52.670;6.750;2023-04-15T10:46:39;10.00;99.90
60293;DHT22;52402;52.670;6.750;2023-04-15T10:49:09;10.10;99.90
60293;DHT22;52402;52.670;6.750;2023-04-15T10:51:38;10.00;99.90
60293;DHT22;52402;52.670;6.750;2023-04-15T10:54:30;10.00;99.90
60293;DHT22;52402;52.670;6.750;2023-04-15T11:05:15;9.80;99.90
60293;DHT22;52402;52.670;6.750;2023-04-15T11:07:47;9.80;99.90
60293;DHT22;52402;52.670;6.750;2023-04-15T11:12:43;9.80;99.90
60293;DHT22;52402;52.670;6.750;2023-04-15T11:17:58;9.80;99.90
60293;DHT22;52402;52.670;6.750;2023-04-15T11:20:24;9.80;99.90
60293;DHT22;52402;52.670;6.750;2023-04-15T11:22:54;9.80;99.90
60293;DHT22;52402;52.670;6.750;2023-04-15T11:25:27;9.80;99.90
60293;DHT22;52402;52.670;6.750;2023-04-15T11:27:54;9.80;99.90
60293;DHT22;52402;52.670;6.750;2023-04-15T11:30:22;9.90;99.90
60293;DHT22;52402;52.670;6.750;2023-04-15T11:32:48;9.80;99.90
60293;DHT22;52402;52.670;6.750;2023-04-15T11:35:15;9.80;99.90
60293;DHT22;52402;52.670;6.750;2023-04-15T11:37:41;9.80;99.90
60293;DHT22;52402;52.670;6.750;2023-04-15T11:40:08;9.90;99.90
60293;DHT22;52402;52.670;6.750;2023-04-15T11:42:33;10.00;99.90
60293;DHT22;52402;52.670;6.750;2023-04-15T11:45:25;10.10;99.90
60293;DHT22;52402;52.670;6.750;2023-04-15T11:47:51;10.10;99.90
60293;DHT22;52402;52.670;6.750;2023-04-15T11:50:18;10.20;99.90
60293;DHT22;52402;52.670;6.750;2023-04-15T11:52:59;10.20;99.90
60293;DHT22;52402;52.670;6.750;2023-04-15T11:55:26;10.30;99.90
60293;DHT22;52402;52.670;6.750;2023-04-15T11:58:28;10.30;99.90
60293;DHT22;52402;52.670;6.750;2023-04-15T12:03:43;10.40;99.90
60293;DHT22;52402;52.670;6.750;2023-04-15T12:06:12;10.40;99.90
60293;DHT22;52402;52.670;6.750;2023-04-15T12:14:01;10.30;99.90
60293;DHT22;52402;52.670;6.750;2023-04-15T12:16:28;10.20;99.90
60293;DHT22;52402;52.670;6.750;2023-04-15T12:18:58;10.30;99.90
60293;DHT22;52402;52.670;6.750;2023-04-15T12:21:26;10.20;99.90
60293;DHT22;52402;52.670;6.750;2023-04-15T12:23:56;10.10;99.90
60293;DHT22;52402;52.670;6.750;2023-04-15T12:26:26;10.10;99.90
60293;DHT22;52402;52.670;6.750;2023-04-15T12:29:03;9.90;99.90
60293;DHT22;52402;52.670;6.750;2023-04-15T12:31:29;9.90;99.90
60293;DHT22;52402;52.670;6.750;2023-04-15T12:33:58;9.90;99.90
60293;DHT22;52402;52.670;6.750;2023-04-15T12:36:25;10.00;99.90
60293;DHT22;52402;52.670;6.750;2023-04-15T12:38:51;9.80;99.90
60293;DHT22;52402;52.670;6.750;2023-04-15T12:41:17;9.80;99.90
60293;DHT22;52402;52.670;6.750;2023-04-15T12:43:46;9.70;99.90
60293;DHT22;52402;52.670;6.750;2023-04-15T12:46:12;9.80;99.90
60293;DHT22;52402;52.670;6.750;2023-04-15T12:48:38;9.80;99.90
60293;DHT22;52402;52.670;6.750;2023-04-15T12:51:04;9.90;99.90
60293;DHT22;52402;52.670;6.750;2023-04-15T12:53:30;9.90;99.90
60293;DHT22;52402;52.670;6.750;2023-04-15T12:55:56;10.00;99.90
60293;DHT22;52402;52.670;6.750;2023-04-15T12:58:22;9.90;99.90
60293;DHT22;52402;52.670;6.750;2023-04-15T13:00:47;9.90;99.90
60293;DHT22;52402;52.670;6.750;2023-04-15T13:03:14;10.00;99.90
60293;DHT22;52402;52.670;6.750;2023-04-15T13:05:40;10.00;99.90
60293;DHT22;52402;52.670;6.750;2023-04-15T13:08:06;10.00;99.90
60293;DHT22;52402;52.670;6.750;2023-04-15T13:10:32;10.00;99.90
60293;DHT22;52402;52.670;6.750;2023-04-15T13:13:01;9.80;99.90
60293;DHT22;52402;52.670;6.750;2023-04-15T13:15:26;9.80;99.90
60293;DHT22;52402;52.670;6.750;2023-04-15T13:17:52;9.80;99.90
60293;DHT22;52402;52.670;6.750;2023-04-15T13:20:18;9.80;99.90
60293;DHT22;52402;52.670;6.750;2023-04-15T13:22:43;9.80;99.90
60293;DHT22;52402;52.670;6.750;2023-04-15T13:25:09;9.70;99.90
60293;DHT22;52402;52.670;6.750;2023-04-15T13:27:35;9.70;99.90
60293;DHT22;52402;52.670;6.750;2023-04-15T13:30:00;9.60;99.90
60293;DHT22;52402;52.670;6.750;2023-04-15T13:32:26;9.70;99.90
60293;DHT22;52402;52.670;6.750;2023-04-15T13:34:52;9.70;99.90
60293;DHT22;52402;52.670;6.750;2023-04-15T13:37:19;9.60;99.90
60293;DHT22;52402;52.670;6.750;2023-04-15T13:39:44;9.70;99.90
60293;DHT22;52402;52.670;6.750;2023-04-15T13:42:10;9.70;99.90
60293;DHT22;52402;52.670;6.750;2023-04-15T13:44:36;9.70;99.90
60293;DHT22;52402;52.670;6.750;2023-04-15T13:47:02;9.70;99.90
60293;DHT22;52402;52.670;6.750;2023-04-15T13:49:28;9.70;99.90
60293;DHT22;52402;52.670;6.750;2023-04-15T13:51:54;9.60;99.90
60293;DHT22;52402;52.670;6.750;2023-04-15T13:54:19;9.50;99.90
60293;DHT22;52402;52.670;6.750;2023-04-15T13:56:45;9.40;99.90
60293;DHT22;52402;52.670;6.750;2023-04-15T13:59:10;9.50;99.90
60293;DHT22;52402;52.670;6.750;2023-04-15T14:01:36;9.50;99.90
60293;DHT22;52402;52.670;6.750;2023-04-15T14:04:02;9.40;99.90
60293;DHT22;52402;52.670;6.750;2023-04-15T14:06:27;9.40;99.90
60293;DHT22;52402;52.670;6.750;2023-04-15T14:08:56;9.30;99.90
60293;DHT22;52402;52.670;6.750;2023-04-15T14:11:21;9.30;99.90
60293;DHT22;52402;52.670;6.750;2023-04-15T14:13:47;9.30;99.90
60293;DHT22;52402;52.670;6.750;2023-04-15T14:16:13;9.20;99.90
60293;DHT22;52402;52.670;6.750;2023-04-15T14:18:40;9.20;99.90
60293;DHT22;52402;52.670;6.750;2023-04-15T14:21:06;9.20;99.90
60293;DHT22;52402;52.670;6.750;2023-04-15T14:23:31;9.10;99.90
60293;DHT22;52402;52.670;6.750;2023-04-15T14:25:57;9.10;99.90
60293;DHT22;52402;52.670;6.750;2023-04-15T14:28:23;9.10;99.90
60293;DHT22;52402;52.670;6.750;2023-04-15T14:30:49;9.10;99.90
60293;DHT22;52402;52.670;6.750;2023-04-15T14:33:14;9.10;99.90
60293;DHT22;52402;52.670;6.750;2023-04-15T14:35:40;9.00;99.90
60293;DHT22;52402;52.670;6.750;2023-04-15T14:38:06;9.00;99.90
60293;DHT22;52402;52.670;6.750;2023-04-15T14:40:35;8.90;99.90
60293;DHT22;52402;52.670;6.750;2023-04-15T14:43:01;8.90;99.90
60293;DHT22;52402;52.670;6.750;2023-04-15T14:45:26;8.90;99.90
60293;DHT22;52402;52.670;6.750;2023-04-15T14:47:52;8.90;99.90
60293;DHT22;52402;52.670;6.750;2023-04-15T14:50:18;8.80;99.90
60293;DHT22;52402;52.670;6.750;2023-04-15T14:52:43;8.80;99.90
60293;DHT22;52402;52.670;6.750;2023-04-15T14:55:10;8.80;99.90
60293;DHT22;52402;52.670;6.750;2023-04-15T14:57:40;8.80;99.90
60293;DHT22;52402;52.670;6.750;2023-04-15T15:00:07;8.80;99.90
60293;DHT22;52402;52.670;6.750;2023-04-15T15:02:33;8.80;99.90
60293;DHT22;52402;52.670;6.750;2023-04-15T15:05:01;8.80;99.90
60293;DHT22;52402;52.670;6.750;2023-04-15T15:07:26;8.80;99.90
60293;DHT22;52402;52.670;6.750;2023-04-15T15:09:53;8.70;99.90
60293;DHT22;52402;52.670;6.750;2023-04-15T15:12:18;8.70;99.90
60293;DHT22;52402;52.670;6.750;2023-04-15T15:14:44;8.70;99.90
60293;DHT22;52402;52.670;6.750;2023-04-15T15:17:10;8.80;99.90
60293;DHT22;52402;52.670;6.750;2023-04-15T15:19:35;8.80;99.90
60293;DHT22;52402;52.670;6.750;2023-04-15T15:22:02;8.70;99.90
60293;DHT22;52402;52.670;6.750;2023-04-15T15:24:27;8.70;99.90
60293;DHT22;52402;52.670;6.750;2023-04-15T15:26:53;8.70;99.90
60293;DHT22;52402;52.670;6.750;2023-04-15T15:29:19;8.60;99.90
60293;DHT22;52402;52.670;6.750;2023-04-15T15:31:44;8.60;99.90
60293;DHT22;52402;52.670;6.750;2023-04-15T15:34:11;8.60;99.90
60293;DHT22;52402;52.670;6.750;2023-04-15T15:36:38;8.60;99.90
60293;DHT22;52402;52.670;6.750;2023-04-15T15:39:03;8.60;99.90
60293;DHT22;52402;52.670;6.750;2023-04-15T15:41:29;8.60;99.90
60293;DHT22;52402;52.670;6.750;2023-04-15T15:43:55;8.60;99.90
60293;DHT22;52402;52.670;6.750;2023-04-15T15:46:21;8.60;99.90
60293;DHT22;52402;52.670;6.750;2023-04-15T15:48:48;8.60;99.90
60293;DHT22;52402;52.670;6.750;2023-04-15T15:51:14;8.60;99.90
60293;DHT22;52402;52.670;6.750;2023-04-15T15:53:39;8.60;99.90
60293;DHT22;52402;52.670;6.750;2023-04-15T15:56:05;8.60;99.90
60293;DHT22;52402;52.670;6.750;2023-04-15T15:58:32;8.60;99.90
60293;DHT22;52402;52.670;6.750;2023-04-15T16:00:59;8.60;99.90
60293;DHT22;52402;52.670;6.750;2023-04-15T16:03:25;8.60;99.90
60293;DHT22;52402;52.670;6.750;2023-04-15T16:05:50;8.50;99.90
60293;DHT22;52402;52.670;6.750;2023-04-15T16:08:16;8.60;99.90
60293;DHT22;52402;52.670;6.750;2023-04-15T16:10:42;8.60;99.90